createdAt,value
2019-02-04T00:04:07.877Z,11.73
2019-02-04T00:09:14.068Z,11.60
2019-02-04T00:14:21.109Z,13.90
2019-02-04T00:19:27.698Z,15.43
2019-02-04T00:24:34.480Z,12.13
2019-02-04T00:29:40.960Z,13.40
2019-02-04T00:34:46.908Z,14.53
2019-02-04T00:39:53.371Z,13.07
2019-02-04T00:45:01.657Z,12.53
2019-02-04T00:50:09.011Z,12.97
2019-02-04T00:55:17.534Z,12.67
2019-02-04T01:00:27.750Z,15.37
2019-02-04T01:05:34.549Z,14.57
2019-02-04T01:10:39.805Z,12.00
2019-02-04T01:15:47.988Z,15.87
2019-02-04T01:20:55.182Z,14.67
2019-02-04T01:26:01.063Z,17.90
2019-02-04T01:31:08.844Z,15.23
2019-02-04T01:36:14.222Z,17.77
2019-02-04T01:41:19.626Z,17.83
2019-02-04T01:46:28.188Z,18.93
2019-02-04T01:51:35.134Z,22.40
2019-02-04T01:56:40.915Z,17.77
2019-02-04T02:01:46.424Z,18.57
2019-02-04T02:06:52.676Z,21.43
2019-02-04T02:12:00.184Z,20.40
2019-02-04T02:17:06.901Z,19.37
2019-02-04T02:22:13.774Z,18.03
2019-02-04T02:27:20.697Z,21.47
2019-02-04T02:32:26.826Z,22.73
2019-02-04T02:37:33.736Z,23.00
2019-02-04T02:42:40.015Z,21.17
2019-02-04T02:47:46.993Z,25.50
2019-02-04T02:52:53.218Z,23.67
2019-02-04T02:58:01.354Z,25.80
2019-02-04T03:03:07.827Z,26.57
2019-02-04T03:08:15.087Z,20.17
2019-02-04T03:13:21.607Z,18.63
2019-02-04T03:18:28.972Z,19.30
2019-02-04T03:23:35.688Z,19.33
2019-02-04T03:28:41.837Z,22.13
2019-02-04T03:33:49.372Z,21.30
2019-02-04T03:38:55.105Z,22.63
2019-02-04T03:44:00.970Z,23.90
2019-02-04T03:49:07.637Z,21.70
2019-02-04T03:54:14.473Z,20.77
2019-02-04T03:59:21.535Z,21.73
2019-02-04T04:04:29.640Z,22.97
2019-02-04T04:09:38.318Z,22.73
2019-02-04T04:14:45.102Z,25.73
2019-02-04T04:19:51.609Z,24.53
2019-02-04T04:24:57.502Z,23.53
2019-02-04T04:30:03.392Z,28.33
2019-02-04T04:35:10.175Z,24.20
2019-02-04T04:40:17.804Z,27.43
2019-02-04T04:45:24.303Z,26.33
2019-02-04T04:50:30.802Z,26.47
2019-02-04T04:55:39.081Z,27.03
2019-02-04T05:00:45.774Z,25.97
2019-02-04T05:05:52.657Z,24.67
2019-02-04T05:10:58.609Z,24.83
2019-02-04T05:16:04.569Z,27.60
2019-02-04T05:21:10.080Z,26.50
2019-02-04T05:26:16.375Z,25.33
2019-02-04T05:31:22.679Z,26.20
2019-02-04T05:36:32.728Z,24.43
2019-02-04T05:41:39.473Z,21.50
2019-02-04T05:46:46.265Z,23.17
2019-02-04T05:51:55.126Z,23.53
2019-02-04T05:57:02.382Z,28.07
2019-02-04T06:02:09.356Z,18.27
2019-02-04T06:07:15.739Z,21.07
2019-02-04T06:12:21.629Z,19.23
2019-02-04T06:17:29.152Z,21.40
2019-02-04T06:22:35.266Z,18.73
2019-02-04T06:27:41.269Z,17.70
2019-02-04T06:32:47.593Z,17.50
2019-02-04T06:37:55.404Z,19.90
2019-02-04T06:43:02.844Z,19.67
2019-02-04T06:48:08.909Z,15.87
2019-02-04T06:53:14.658Z,16.03
2019-02-04T06:58:21.149Z,16.37
2019-02-04T07:03:26.889Z,15.80
2019-02-04T07:08:34.416Z,16.10
2019-02-04T07:13:42.724Z,16.77
2019-02-04T07:18:50.389Z,15.80
2019-02-04T07:23:56.643Z,16.07
2019-02-04T07:29:05.035Z,15.47
2019-02-04T07:34:10.994Z,15.00
2019-02-04T07:39:17.872Z,14.73
2019-02-04T07:44:24.192Z,14.33
2019-02-04T07:49:40.657Z,16.17
2019-02-04T07:54:47.621Z,13.73
2019-02-04T07:59:54.948Z,15.53
2019-02-04T08:05:01.157Z,14.07
2019-02-04T08:10:08.128Z,15.00
2019-02-04T08:15:17.829Z,14.37
2019-02-04T08:20:25.429Z,14.67
2019-02-04T08:25:33.079Z,13.37
2019-02-04T08:30:42.193Z,15.03
2019-02-04T08:35:50.083Z,17.20
2019-02-04T08:40:57.112Z,13.13
2019-02-04T08:46:02.871Z,14.37
2019-02-04T08:51:15.814Z,13.30
2019-02-04T08:56:22.137Z,15.07
2019-02-04T09:01:28.484Z,13.80
2019-02-04T09:06:35.505Z,12.37
2019-02-04T09:11:42.250Z,12.77
2019-02-04T09:16:50.146Z,12.50
2019-02-04T09:21:58.535Z,12.10
2019-02-04T09:27:05.871Z,11.07
2019-02-04T09:32:13.148Z,11.90
2019-02-04T09:37:20.016Z,11.70
2019-02-04T09:42:27.487Z,11.97
2019-02-04T09:47:34.498Z,10.40
2019-02-04T09:52:41.395Z,13.30
2019-02-04T09:57:47.460Z,13.43
2019-02-04T10:02:53.230Z,8.87
2019-02-04T10:08:00.644Z,10.83
2019-02-04T10:13:07.296Z,12.10
2019-02-04T10:18:14.262Z,10.67
2019-02-04T10:23:20.760Z,9.63
2019-02-04T10:28:27.313Z,11.63
2019-02-04T10:33:34.869Z,11.37
2019-02-04T10:38:40.693Z,11.37
2019-02-04T10:43:46.337Z,12.23
2019-02-04T10:48:51.681Z,12.33
2019-02-04T10:53:58.094Z,11.43
2019-02-04T10:59:03.445Z,10.40
2019-02-04T11:04:10.351Z,10.03
2019-02-04T11:09:15.697Z,10.23
2019-02-04T11:14:23.611Z,10.83
2019-02-04T11:19:29.758Z,10.57
2019-02-04T11:24:35.053Z,10.80
2019-02-04T11:29:42.328Z,9.83
2019-02-04T11:34:50.808Z,12.27
2019-02-04T11:39:56.654Z,10.80
2019-02-04T11:45:04.178Z,9.00
2019-02-04T11:50:10.778Z,9.97
2019-02-04T11:55:17.167Z,9.20
2019-02-04T12:00:25.149Z,9.97
2019-02-04T12:05:31.498Z,9.00
2019-02-04T12:10:43.370Z,7.97
2019-02-04T12:15:49.769Z,9.73
2019-02-04T12:20:55.993Z,8.67
2019-02-04T12:26:01.998Z,5.87
2019-02-04T12:31:09.596Z,6.93
2019-02-04T12:36:15.571Z,7.73
2019-02-04T12:41:21.725Z,7.07
2019-02-04T12:46:28.324Z,9.40
2019-02-04T12:51:34.698Z,8.83
2019-02-04T12:56:41.070Z,6.43
2019-02-04T13:01:47.197Z,5.97
2019-02-04T13:06:55.077Z,5.83
2019-02-04T13:12:02.904Z,6.73
2019-02-04T13:17:09.312Z,10.43
2019-02-04T13:22:16.898Z,6.30
2019-02-04T13:27:22.807Z,6.80
2019-02-04T13:32:29.606Z,7.73
2019-02-04T13:37:36.829Z,8.00
2019-02-04T13:42:42.652Z,7.93
2019-02-04T13:47:51.884Z,6.33
2019-02-04T13:52:57.921Z,9.80
2019-02-04T13:58:04.462Z,8.70
2019-02-04T14:03:12.433Z,6.83
2019-02-04T14:08:17.549Z,7.20
2019-02-04T14:13:24.065Z,6.80
2019-02-04T14:18:29.542Z,8.13
2019-02-04T14:23:36.478Z,8.03
2019-02-04T14:28:44.150Z,6.67
2019-02-04T14:33:49.793Z,6.50
2019-02-04T14:38:56.893Z,7.33
2019-02-04T14:44:09.741Z,7.57
2019-02-04T14:49:51.133Z,8.13
2019-02-04T14:55:14.958Z,6.53
2019-02-04T15:01:25.459Z,6.57
2019-02-04T15:07:28.762Z,9.07
2019-02-04T15:13:01.148Z,6.43
2019-02-04T15:18:28.348Z,7.87
2019-02-04T15:24:08.895Z,5.40
2019-02-04T15:29:26.509Z,6.77
2019-02-04T15:35:09.170Z,5.90
2019-02-04T15:40:52.647Z,7.33
2019-02-04T15:46:42.570Z,6.73
2019-02-04T15:51:54.337Z,7.73
2019-02-04T15:57:00.608Z,7.00
2019-02-04T16:02:09.613Z,7.13
2019-02-04T16:07:16.940Z,6.57
2019-02-04T16:12:22.153Z,5.47
2019-02-04T16:17:28.666Z,5.47
2019-02-04T16:22:35.029Z,5.83
2019-02-04T16:27:42.879Z,4.50
2019-02-04T16:32:48.819Z,5.73
2019-02-04T16:37:56.325Z,6.53
2019-02-04T16:43:03.041Z,4.60
2019-02-04T16:48:11.516Z,4.33
2019-02-04T16:53:19.833Z,6.87
2019-02-04T16:58:30.658Z,4.87
2019-02-04T17:03:37.080Z,5.07
2019-02-04T17:08:43.439Z,4.20
2019-02-04T17:13:51.053Z,4.20
2019-02-04T17:18:57.936Z,2.77
2019-02-04T17:24:04.001Z,4.77
2019-02-04T17:29:09.548Z,4.27
2019-02-04T17:34:14.777Z,3.63
2019-02-04T17:39:19.921Z,3.33
2019-02-04T17:56:34.714Z,6.17
2019-02-04T18:01:43.089Z,4.90
2019-02-04T18:06:48.151Z,3.80
2019-02-04T18:11:56.341Z,4.00
2019-02-04T18:17:03.519Z,2.80
2019-02-04T18:22:09.428Z,3.97
2019-02-04T18:27:16.623Z,4.63
2019-02-04T18:32:22.885Z,3.43
2019-02-04T18:37:29.071Z,2.97
2019-02-04T18:42:35.946Z,2.33
2019-02-04T18:47:42.189Z,3.50
2019-02-04T18:52:48.086Z,3.50
2019-02-04T18:57:54.174Z,2.53
2019-02-04T19:03:00.000Z,2.33
2019-02-04T19:08:06.950Z,4.13
2019-02-04T19:13:12.736Z,2.37
2019-02-04T19:18:20.393Z,3.27
2019-02-04T19:23:47.777Z,2.67
2019-02-04T19:28:54.393Z,2.70
2019-02-04T19:34:01.881Z,2.73
2019-02-04T19:39:10.189Z,3.03
2019-02-04T19:44:15.974Z,4.13
2019-02-04T19:49:22.045Z,3.53
2019-02-04T19:54:28.286Z,3.43
2019-02-04T19:59:34.481Z,4.43
2019-02-04T20:04:40.774Z,3.50
2019-02-04T20:09:46.561Z,5.03
2019-02-04T20:14:52.833Z,4.07
2019-02-04T20:19:59.814Z,5.17
2019-02-04T20:25:06.001Z,5.37
2019-02-04T20:30:15.092Z,5.10
2019-02-04T20:35:22.153Z,3.47
2019-02-04T20:40:28.072Z,4.90
2019-02-04T20:45:34.530Z,7.53
2019-02-04T20:50:41.881Z,6.53
2019-02-04T20:55:48.070Z,5.57
2019-02-04T21:00:54.387Z,5.43
2019-02-04T21:06:00.053Z,6.23
2019-02-04T21:11:05.342Z,5.10
2019-02-04T21:16:11.776Z,6.53
2019-02-04T21:21:17.624Z,4.63
2019-02-04T21:26:23.398Z,8.83
2019-02-04T21:31:28.161Z,5.73
2019-02-04T21:36:34.656Z,7.27
2019-02-04T21:41:40.950Z,5.00
2019-02-04T21:46:46.719Z,7.23
2019-02-04T21:51:52.402Z,5.27
2019-02-04T21:56:59.033Z,5.57
2019-02-04T22:02:05.881Z,5.33
2019-02-04T22:07:13.302Z,6.10
2019-02-04T22:12:20.027Z,6.37
2019-02-04T22:17:26.255Z,11.13
2019-02-04T22:22:34.774Z,8.17
2019-02-04T22:27:40.286Z,5.73
2019-02-04T22:32:46.500Z,5.30
2019-02-04T22:37:54.637Z,4.97
2019-02-04T22:43:03.700Z,4.63
2019-02-04T22:48:11.866Z,6.47
2019-02-04T22:53:19.102Z,5.93
2019-02-04T22:58:28.161Z,6.30
2019-02-04T23:03:33.567Z,6.43
2019-02-04T23:08:40.649Z,5.07
2019-02-04T23:13:46.939Z,6.37
2019-02-04T23:18:53.389Z,6.50
2019-02-04T23:23:59.917Z,8.27
2019-02-04T23:29:07.645Z,7.17
2019-02-04T23:34:13.065Z,7.27
2019-02-04T23:39:20.085Z,7.50
2019-02-04T23:44:27.744Z,8.07
2019-02-04T23:49:34.210Z,7.07
2019-02-04T23:54:39.584Z,7.17
2019-02-04T23:59:45.877Z,6.77
